createdAt,value
2022-09-17T00:03:23.163Z,9.80
2022-09-17T00:08:25.887Z,9.80
2022-09-17T00:13:28.738Z,9.80
2022-09-17T00:18:31.424Z,9.80
2022-09-17T00:23:37.751Z,9.90
2022-09-17T00:28:41.833Z,9.90
2022-09-17T00:33:44.546Z,9.90
2022-09-17T00:38:47.542Z,10.00
2022-09-17T00:43:51.037Z,9.90
2022-09-17T00:48:53.752Z,9.90
2022-09-17T00:53:56.639Z,9.90
2022-09-17T00:58:59.507Z,10.00
2022-09-17T01:04:02.454Z,9.90
2022-09-17T01:09:05.270Z,9.90
2022-09-17T01:14:07.949Z,9.90
2022-09-17T01:19:11.237Z,9.70
2022-09-17T01:24:14.469Z,9.80
2022-09-17T01:29:17.241Z,9.80
2022-09-17T01:34:20.346Z,9.80
2022-09-17T01:39:23.209Z,9.90
2022-09-17T01:44:26.014Z,9.80
2022-09-17T01:49:33.857Z,9.70
2022-09-17T01:54:40.384Z,9.70
2022-09-17T01:59:45.156Z,9.80
2022-09-17T02:04:47.868Z,9.80
2022-09-17T02:09:51.110Z,9.80
2022-09-17T02:14:53.924Z,9.70
2022-09-17T02:19:56.617Z,9.70
2022-09-17T02:24:59.418Z,9.80
2022-09-17T02:30:02.114Z,9.70
2022-09-17T02:35:06.539Z,9.60
2022-09-17T02:40:09.303Z,9.70
2022-09-17T02:45:12.134Z,9.60
2022-09-17T02:50:17.159Z,9.60
2022-09-17T02:55:20.293Z,9.40
2022-09-17T03:00:23.102Z,9.40
2022-09-17T03:05:25.771Z,9.30
2022-09-17T03:10:33.787Z,9.30
2022-09-17T03:15:36.774Z,9.20
2022-09-17T03:20:39.564Z,10.10
2022-09-17T03:25:43.084Z,9.10
2022-09-17T03:30:45.985Z,9.00
2022-09-17T03:35:48.754Z,8.90
2022-09-17T03:45:56.984Z,9.00
2022-09-17T03:50:59.658Z,8.90
2022-09-17T03:56:02.653Z,8.70
2022-09-17T04:01:05.730Z,8.60
2022-09-17T04:06:08.425Z,8.40
2022-09-17T04:11:11.222Z,8.40
2022-09-17T04:16:16.097Z,8.30
2022-09-17T04:21:20.870Z,8.30
2022-09-17T04:26:23.647Z,8.20
2022-09-17T04:31:27.270Z,8.20
2022-09-17T04:36:30.078Z,8.20
2022-09-17T04:41:32.935Z,8.30
2022-09-17T04:46:35.932Z,8.30
2022-09-17T04:51:38.736Z,8.30
2022-09-17T04:56:41.448Z,8.40
2022-09-17T05:01:44.350Z,8.60
2022-09-17T05:06:52.382Z,8.70
2022-09-17T05:11:55.090Z,8.80
2022-09-17T05:16:58.359Z,9.00
2022-09-17T05:22:01.161Z,9.10
2022-09-17T05:27:04.258Z,9.20
2022-09-17T05:32:06.971Z,9.20
2022-09-17T05:37:09.767Z,9.30
2022-09-17T05:42:12.487Z,9.20
2022-09-17T05:47:15.219Z,9.30
2022-09-17T05:52:17.898Z,9.30
2022-09-17T05:57:21.890Z,9.30
2022-09-17T06:02:24.697Z,9.30
2022-09-17T06:07:27.387Z,9.10
2022-09-17T06:12:35.709Z,9.10
2022-09-17T06:17:38.606Z,9.20
2022-09-17T06:22:41.318Z,9.30
2022-09-17T06:27:44.384Z,9.40
2022-09-17T06:32:47.321Z,9.70
2022-09-17T06:37:50.394Z,9.40
2022-09-17T06:42:53.084Z,9.40
2022-09-17T06:47:56.270Z,9.40
2022-09-17T06:52:59.400Z,9.40
2022-09-17T06:58:02.117Z,9.60
2022-09-17T07:03:04.802Z,9.60
2022-09-17T07:08:07.494Z,9.60
2022-09-17T07:13:10.191Z,9.60
2022-09-17T07:18:12.905Z,9.60
2022-09-17T07:23:15.646Z,9.80
2022-09-17T07:28:18.414Z,9.80
2022-09-17T07:33:23.288Z,10.10
2022-09-17T07:38:26.040Z,10.20
2022-09-17T07:43:28.717Z,10.20
2022-09-17T07:48:31.434Z,10.40
2022-09-17T07:53:34.349Z,10.70
2022-09-17T07:58:37.246Z,10.70
2022-09-17T08:03:40.247Z,10.70
2022-09-17T08:08:43.283Z,10.80
2022-09-17T08:13:45.993Z,10.90
2022-09-17T08:18:48.903Z,10.90
2022-09-17T08:23:51.722Z,11.20
2022-09-17T08:28:55.207Z,11.40
2022-09-17T08:33:58.086Z,11.30
2022-09-17T08:39:01.078Z,11.20
2022-09-17T08:44:04.083Z,11.20
2022-09-17T08:49:06.917Z,11.20
2022-09-17T08:54:10.088Z,11.20
2022-09-17T08:59:12.792Z,11.00
2022-09-17T09:04:15.677Z,10.80
2022-09-17T09:09:18.513Z,10.90
2022-09-17T09:14:21.699Z,11.00
2022-09-17T09:19:24.542Z,11.20
2022-09-17T09:24:28.707Z,11.30
2022-09-17T09:29:31.465Z,11.10
2022-09-17T09:34:34.126Z,11.30
2022-09-17T09:39:42.636Z,11.20
2022-09-17T09:44:48.892Z,10.70
2022-09-17T09:49:53.565Z,10.70
2022-09-17T09:54:56.207Z,10.70
2022-09-17T09:59:59.011Z,10.80
2022-09-17T10:05:01.730Z,10.90
2022-09-17T10:10:04.890Z,10.60
2022-09-17T10:15:07.714Z,10.00
2022-09-17T10:20:12.507Z,9.60
2022-09-17T10:25:15.200Z,9.60
2022-09-17T10:30:18.008Z,9.50
2022-09-17T10:35:20.892Z,9.50
2022-09-17T10:40:24.075Z,9.60
2022-09-17T10:45:26.893Z,10.10
2022-09-17T10:50:29.697Z,10.30
2022-09-17T10:55:40.850Z,10.10
2022-09-17T11:00:44.195Z,10.10
2022-09-17T11:05:47.050Z,10.20
2022-09-17T11:10:49.788Z,10.30
2022-09-17T11:15:53.263Z,10.50
2022-09-17T11:20:56.237Z,10.90
2022-09-17T11:26:00.810Z,11.20
2022-09-17T11:31:04.446Z,11.10
2022-09-17T11:36:07.420Z,10.90
2022-09-17T11:41:10.096Z,9.80
2022-09-17T11:46:12.805Z,8.90
2022-09-17T11:51:15.870Z,9.00
2022-09-17T11:56:18.568Z,9.60
2022-09-17T12:01:21.238Z,10.10
2022-09-17T12:06:24.323Z,10.70
2022-09-17T12:11:32.094Z,10.90
2022-09-17T12:16:34.901Z,10.90
2022-09-17T12:21:37.657Z,10.50
2022-09-17T12:26:40.376Z,9.90
2022-09-17T12:31:43.123Z,10.00
2022-09-17T12:36:48.730Z,10.50
2022-09-17T12:41:51.551Z,10.70
2022-09-17T12:46:54.265Z,10.80
2022-09-17T12:51:57.288Z,10.90
2022-09-17T12:57:00.050Z,10.90
2022-09-17T13:02:02.813Z,11.20
2022-09-17T13:07:05.924Z,11.20
2022-09-17T13:12:08.969Z,11.20
2022-09-17T13:17:11.689Z,11.00
2022-09-17T13:22:14.377Z,10.50
2022-09-17T13:27:17.107Z,10.40
2022-09-17T13:32:20.093Z,10.60
2022-09-17T13:37:23.649Z,10.70
2022-09-17T13:42:28.057Z,10.60
2022-09-17T13:47:30.823Z,10.70
2022-09-17T13:52:33.575Z,10.70
2022-09-17T13:57:36.641Z,11.00
2022-09-17T14:02:39.895Z,11.40
2022-09-17T14:07:42.802Z,11.90
2022-09-17T14:12:47.783Z,12.20
2022-09-17T14:17:51.862Z,12.20
2022-09-17T14:22:54.809Z,11.90
2022-09-17T14:27:57.930Z,11.90
2022-09-17T14:33:00.729Z,12.10
2022-09-17T14:38:03.549Z,12.20
2022-09-17T14:43:06.359Z,12.10
2022-09-17T14:48:09.273Z,11.90
2022-09-17T14:53:11.964Z,11.60
2022-09-17T14:58:14.683Z,11.60
2022-09-17T15:03:17.556Z,11.60
2022-09-17T15:08:21.214Z,11.80
2022-09-17T15:13:24.053Z,11.80
2022-09-17T15:18:27.145Z,11.80
2022-09-17T15:23:32.667Z,11.60
2022-09-17T15:28:35.673Z,11.30
2022-09-17T15:33:38.673Z,11.10
2022-09-17T15:38:42.712Z,10.80
2022-09-17T15:43:45.545Z,10.70
2022-09-17T15:48:48.665Z,10.70
2022-09-17T15:53:51.460Z,10.60
2022-09-17T15:58:54.917Z,9.40
2022-09-17T16:03:58.135Z,10.50
2022-09-17T16:09:01.023Z,10.50
2022-09-17T16:14:03.982Z,10.40
2022-09-17T16:19:07.014Z,10.30
2022-09-17T16:24:09.693Z,10.40
2022-09-17T16:29:12.565Z,10.30
2022-09-17T16:34:15.959Z,10.20
2022-09-17T16:39:19.230Z,10.20
2022-09-17T16:44:21.879Z,10.10
2022-09-17T16:49:24.625Z,10.10
2022-09-17T16:54:27.316Z,9.90
2022-09-17T16:59:30.186Z,9.80
2022-09-17T17:04:32.915Z,9.70
2022-09-17T17:09:35.809Z,9.60
2022-09-17T17:14:38.575Z,9.40
2022-09-17T17:19:41.345Z,9.30
2022-09-17T17:24:44.040Z,9.10
2022-09-17T17:29:50.260Z,9.00
2022-09-17T17:34:52.979Z,8.90
2022-09-17T17:39:56.421Z,8.80
2022-09-17T17:45:01.575Z,8.90
2022-09-17T17:50:04.362Z,8.70
2022-09-17T17:55:07.185Z,8.70
2022-09-17T18:00:10.947Z,8.70
2022-09-17T18:05:13.605Z,8.60
2022-09-17T18:10:16.354Z,8.60
2022-09-17T18:15:19.093Z,8.60
2022-09-17T18:20:22.725Z,8.70
2022-09-17T18:25:25.552Z,8.80
2022-09-17T18:30:29.052Z,8.90
2022-09-17T18:35:31.762Z,9.00
2022-09-17T18:40:35.115Z,9.20
2022-09-17T18:45:39.516Z,9.10
2022-09-17T18:50:42.433Z,9.10
2022-09-17T18:55:45.441Z,9.10
2022-09-17T19:00:48.541Z,9.10
2022-09-17T19:05:51.403Z,8.90
2022-09-17T19:10:54.246Z,8.80
2022-09-17T19:15:57.187Z,8.80
2022-09-17T19:21:00.217Z,8.70
2022-09-17T19:26:03.086Z,8.70
2022-09-17T19:31:05.931Z,8.80
2022-09-17T19:36:11.264Z,8.80
2022-09-17T19:41:14.273Z,8.90
2022-09-17T19:46:17.870Z,8.90
2022-09-17T19:51:20.780Z,8.90
2022-09-17T19:56:23.539Z,9.00
2022-09-17T20:01:26.400Z,9.00
2022-09-17T20:06:29.289Z,9.10
2022-09-17T20:11:32.117Z,9.00
2022-09-17T20:16:34.900Z,9.20
2022-09-17T20:21:37.702Z,9.20
2022-09-17T20:26:40.458Z,9.20
2022-09-17T20:31:43.585Z,9.10
2022-09-17T20:36:46.770Z,8.70
2022-09-17T20:41:49.526Z,8.50
2022-09-17T20:46:54.682Z,8.40
2022-09-17T20:52:00.392Z,8.30
2022-09-17T20:57:03.126Z,8.20
2022-09-17T21:02:05.898Z,8.30
2022-09-17T21:07:08.734Z,8.20
2022-09-17T21:12:11.579Z,8.30
2022-09-17T21:17:14.383Z,8.20
2022-09-17T21:22:17.132Z,8.10
2022-09-17T21:27:20.032Z,8.00
2022-09-17T21:32:22.783Z,7.90
2022-09-17T21:37:26.788Z,7.80
2022-09-17T21:42:30.781Z,7.70
2022-09-17T21:47:33.561Z,7.70
2022-09-17T21:52:36.348Z,7.60
2022-09-17T21:57:39.063Z,7.50
2022-09-17T22:02:41.907Z,7.40
2022-09-17T22:07:44.790Z,7.30
2022-09-17T22:12:47.593Z,7.50
2022-09-17T22:17:50.339Z,7.20
2022-09-17T22:28:19.501Z,7.10
2022-09-17T22:33:19.322Z,7.00
2022-09-17T22:38:22.120Z,7.00
